New Albany, Pennsylvania
Current Conditions -  °F | °C
As of 10:24 AM on Wednesday 26 Nov 2014 (Local Time) from KIPT Reporting Station
Moderate Snow Moderate Snow  
Wind Chill: 33°   Ceiling: 800
Heat Index: 33°   Visibility: 0.5mi
Dew Point: 31°   Wind: 3mph
Humidity: 92%   Direction: 250°WSW
Pressure: 30.16"   Gusts: NA
Location:  41.6°N, 76.44°W
Report Text: KIPT 261524Z 25003KT 1/2SM SN FG VV008 01/M01 A3016 RMK AO2 P0004 T00061006
Loading
Personal Weather Stations






























Interactive Weather Map New forecast layout! Learn more

10-Day Weather Forecast

Advertisements
Track Severe Weather on mobile